Time;durP1;ratioP1;P1;durP2;ratioP2;P2;SDS_P1;SDS_P2;PMS_P1;PMS_P2;Temp;Humidity;BMP_temperature;BMP_pressure;BME280_temperature;BME280_humidity;BME280_pressure;Samples;Min_cycle;Max_cycle;Signal;HPM_P1;HPM_P2
2022/07/11 03:02:37;;;;;;;0.68;0.30;;;22.50;44.30;;;;;;4901102;28;45678;-54
2022/07/11 03:05:04;;;;;;;1.25;0.50;;;22.50;44.10;;;;;;4913514;28;45354;-56
2022/07/11 03:07:30;;;;;;;2.53;0.50;;;22.50;44.30;;;;;;4920729;28;45244;-55
2022/07/11 03:09:56;;;;;;;1.13;0.38;;;22.50;44.40;;;;;;4919057;28;44751;-59
2022/07/11 03:12:23;;;;;;;1.63;0.47;;;22.50;44.40;;;;;;4920942;28;46254;-60
2022/07/11 03:14:49;;;;;;;1.75;0.60;;;22.50;44.80;;;;;;4919370;28;44801;-56
2022/07/11 03:17:17;;;;;;;2.72;0.38;;;22.40;45.00;;;;;;4919919;28;46188;-60
2022/07/11 03:19:43;;;;;;;1.38;0.50;;;22.30;45.20;;;;;;4922360;28;45499;-57
2022/07/11 03:22:10;;;;;;;1.85;0.43;;;22.30;45.50;;;;;;4920088;28;46137;-58
2022/07/11 03:24:37;;;;;;;2.03;0.95;;;22.30;46.30;;;;;;4916543;28;45300;-60
2022/07/11 03:27:04;;;;;;;1.60;0.70;;;22.30;46.00;;;;;;4904155;28;44716;-54
2022/07/11 03:29:31;;;;;;;1.60;0.60;;;22.30;46.20;;;;;;4926314;28;44726;-55
2022/07/11 03:31:57;;;;;;;1.92;0.70;;;22.20;46.20;;;;;;4919774;28;45931;-57
2022/07/11 03:34:24;;;;;;;1.15;0.80;;;22.20;46.20;;;;;;4922114;28;45228;-53
2022/07/11 03:36:50;;;;;;;2.03;0.65;;;22.30;46.10;;;;;;4922532;28;45124;-54
2022/07/11 03:39:16;;;;;;;2.92;0.75;;;22.30;46.30;;;;;;4921562;28;45145;-59
2022/07/11 03:41:43;;;;;;;1.98;0.80;;;22.30;46.40;;;;;;4923063;28;45693;-57
2022/07/11 03:44:09;;;;;;;2.53;0.95;;;22.30;46.20;;;;;;4919138;28;44747;-57
2022/07/11 03:46:35;;;;;;;0.90;0.50;;;22.30;46.10;;;;;;4919706;28;45515;-62
2022/07/11 03:49:02;;;;;;;3.00;0.60;;;22.30;46.10;;;;;;4922089;28;45165;-53
2022/07/11 03:51:29;;;;;;;1.45;0.50;;;22.30;46.30;;;;;;4919437;28;45989;-60
2022/07/11 03:53:55;;;;;;;1.70;0.60;;;22.20;46.30;;;;;;4919647;28;45248;-55
2022/07/11 03:56:22;;;;;;;2.42;0.40;;;22.20;46.40;;;;;;4918860;28;44677;-57
2022/07/11 03:58:49;;;;;;;0.60;0.40;;;22.20;46.50;;;;;;4923484;28;45319;-57
2022/07/11 04:01:16;;;;;;;1.27;0.70;;;22.20;46.40;;;;;;4915751;28;46051;-55
2022/07/11 04:03:42;;;;;;;1.25;0.55;;;22.20;46.40;;;;;;4916488;28;45329;-59
2022/07/11 04:06:08;;;;;;;1.20;0.57;;;22.30;46.40;;;;;;4919551;28;45628;-61
2022/07/11 04:08:34;;;;;;;0.80;0.60;;;22.20;46.40;;;;;;4904415;28;45441;-57
2022/07/11 04:11:01;;;;;;;1.08;0.60;;;22.30;46.40;;;;;;4919563;28;46139;-54
2022/07/11 04:13:27;;;;;;;1.48;0.75;;;22.30;46.30;;;;;;4921908;28;44972;-55
2022/07/11 04:15:53;;;;;;;0.57;0.50;;;22.30;46.10;;;;;;4919036;28;45316;-57
2022/07/11 04:18:19;;;;;;;1.80;0.47;;;22.30;46.30;;;;;;4922032;28;45461;-55
2022/07/11 04:20:46;;;;;;;1.45;0.60;;;22.30;46.30;;;;;;4921023;28;46203;-54
2022/07/11 04:23:13;;;;;;;2.88;0.88;;;22.40;46.20;;;;;;4923560;28;45369;-59
2022/07/11 04:25:39;;;;;;;1.40;0.77;;;22.40;46.20;;;;;;4910492;28;45320;-58
2022/07/11 04:28:06;;;;;;;2.95;0.88;;;22.40;46.00;;;;;;4922965;28;45176;-58
2022/07/11 04:30:33;;;;;;;1.38;0.60;;;22.50;46.00;;;;;;4920166;28;46102;-55
2022/07/11 04:32:59;;;;;;;1.80;0.70;;;22.50;46.00;;;;;;4919283;28;44733;-55
2022/07/11 04:35:27;;;;;;;1.08;0.40;;;22.50;46.00;;;;;;4918857;28;45116;-60
2022/07/11 04:37:54;;;;;;;1.23;0.55;;;22.50;45.90;;;;;;4917809;28;45578;-54
2022/07/11 04:40:23;;;;;;;0.82;0.50;;;22.50;45.80;;;;;;4921683;28;46022;-56
2022/07/11 04:42:50;;;;;;;1.63;0.55;;;22.50;45.90;;;;;;4919939;28;45174;-56
2022/07/11 04:45:16;;;;;;;1.38;0.70;;;22.50;46.00;;;;;;4919103;28;45278;-60
2022/07/11 04:47:43;;;;;;;1.27;0.57;;;22.50;46.00;;;;;;4919289;28;45252;-55
2022/07/11 04:50:10;;;;;;;1.23;0.60;;;22.50;46.00;;;;;;4920280;28;46079;-55
2022/07/11 04:52:37;;;;;;;0.73;0.47;;;22.50;46.20;;;;;;4916759;28;45123;-55
2022/07/11 04:55:04;;;;;;;0.80;0.50;;;22.50;46.20;;;;;;4920485;28;45386;-53
2022/07/11 04:57:30;;;;;;;2.15;0.50;;;22.50;46.00;;;;;;4923272;28;45286;-59
2022/07/11 04:59:57;;;;;;;1.65;0.57;;;22.60;46.00;;;;;;4919994;28;45141;-59
2022/07/11 05:02:23;;;;;;;1.75;0.73;;;22.60;46.10;;;;;;4913853;28;45360;-57
2022/07/11 05:04:49;;;;;;;0.88;0.45;;;22.60;46.20;;;;;;4920479;28;45681;-57
2022/07/11 05:07:15;;;;;;;1.75;0.60;;;22.60;46.40;;;;;;4904619;28;45313;-58
2022/07/11 05:09:42;;;;;;;1.30;0.65;;;22.50;46.50;;;;;;4922717;28;46176;-54
2022/07/11 05:12:08;;;;;;;1.42;0.52;;;22.50;46.50;;;;;;4920567;28;45228;-57
2022/07/11 05:14:35;;;;;;;0.75;0.40;;;22.50;46.60;;;;;;4922124;28;44724;-60
2022/07/11 05:17:01;;;;;;;1.13;0.45;;;22.50;46.70;;;;;;4917545;28;45586;-58
2022/07/11 05:19:27;;;;;;;2.47;0.75;;;22.50;46.80;;;;;;4920711;28;46203;-60
2022/07/11 05:21:54;;;;;;;1.92;0.95;;;22.40;47.00;;;;;;4918083;28;45297;-55
2022/07/11 05:24:20;;;;;;;2.65;0.85;;;22.40;47.20;;;;;;4917448;28;45587;-55
2022/07/11 05:26:47;;;;;;;1.25;0.65;;;22.30;47.60;;;;;;4918268;28;45975;-57
2022/07/11 05:29:13;;;;;;;2.40;0.88;;;22.20;47.90;;;;;;4918656;28;45214;-59
2022/07/11 05:31:40;;;;;;;4.18;1.25;;;22.20;48.20;;;;;;4914794;28;45171;-64
2022/07/11 05:34:06;;;;;;;1.95;1.00;;;22.20;48.40;;;;;;4918266;28;45404;-57
2022/07/11 05:36:32;;;;;;;2.08;0.82;;;22.20;48.60;;;;;;4918332;28;44954;-55
2022/07/11 05:38:58;;;;;;;1.40;0.70;;;22.20;48.80;;;;;;4916092;28;46054;-58
2022/07/11 05:41:25;;;;;;;3.25;0.80;;;22.20;49.10;;;;;;4919746;28;45299;-57
2022/07/11 05:43:51;;;;;;;1.38;0.60;;;22.10;49.10;;;;;;4919830;28;45310;-54
2022/07/11 05:46:17;;;;;;;1.05;0.65;;;22.10;49.40;;;;;;4919664;28;45509;-56
2022/07/11 05:48:44;;;;;;;1.23;0.60;;;22.10;49.60;;;;;;4920771;28;46135;-59
2022/07/11 05:51:11;;;;;;;0.50;0.50;;;22.10;49.50;;;;;;4916855;28;45219;-58
2022/07/11 05:53:37;;;;;;;2.45;0.70;;;22.10;49.50;;;;;;4917974;28;45441;-61
2022/07/11 05:56:04;;;;;;;0.70;0.50;;;22.10;49.60;;;;;;4913915;28;45827;-58
2022/07/11 05:58:30;;;;;;;0.95;0.73;;;22.10;49.60;;;;;;4924455;28;46129;-55
2022/07/11 06:00:58;;;;;;;2.03;0.70;;;22.30;49.20;;;;;;4921069;28;45102;-60
2022/07/11 06:03:24;;;;;;;1.55;0.70;;;22.40;49.10;;;;;;4922343;28;45224;-59
2022/07/11 06:05:51;;;;;;;0.57;0.55;;;22.40;48.90;;;;;;4919117;28;44682;-55
2022/07/11 06:11:02;;;;;;;0.80;0.50;;;22.40;49.00;;;;;;4918297;28;44961;-55
2022/07/11 06:13:32;;;;;;;0.73;0.60;;;22.50;49.10;;;;;;4918440;28;45582;-57
2022/07/11 06:15:58;;;;;;;0.85;0.40;;;22.50;49.00;;;;;;4920941;28;45161;-53
2022/07/11 06:18:25;;;;;;;0.90;0.40;;;22.50;49.00;;;;;;4917976;28;45163;-60
2022/07/11 06:20:51;;;;;;;1.58;0.50;;;22.50;48.90;;;;;;4919217;28;46414;-59
2022/07/11 06:23:18;;;;;;;0.88;0.50;;;22.60;49.00;;;;;;4921963;28;45206;-56
2022/07/11 06:25:44;;;;;;;0.75;0.40;;;22.50;48.80;;;;;;4920658;28;45347;-56
2022/07/11 06:28:11;;;;;;;0.40;0.40;;;22.60;48.90;;;;;;4922885;28;46022;-55
2022/07/11 06:30:37;;;;;;;1.95;0.63;;;22.60;48.80;;;;;;4922360;28;45259;-56
2022/07/11 06:33:04;;;;;;;1.85;1.00;;;22.60;49.00;;;;;;4916536;28;45305;-57
2022/07/11 06:35:30;;;;;;;1.17;0.60;;;22.70;48.90;;;;;;4917752;28;45475;-59
2022/07/11 06:37:57;;;;;;;1.15;0.60;;;22.70;48.90;;;;;;4906549;28;46119;-56
2022/07/11 06:40:23;;;;;;;0.47;0.40;;;22.70;48.80;;;;;;4924178;28;45216;-54
2022/07/11 06:42:49;;;;;;;1.58;0.70;;;22.70;48.80;;;;;;4921392;28;44872;-59
2022/07/11 06:45:16;;;;;;;1.23;0.55;;;22.70;48.90;;;;;;4929519;28;45363;-61
2022/07/11 06:47:42;;;;;;;5.07;0.50;;;22.80;48.90;;;;;;4906931;28;45936;-59
2022/07/11 06:50:09;;;;;;;0.38;0.35;;;22.80;48.90;;;;;;4922659;28;45119;-58
2022/07/11 06:52:35;;;;;;;1.65;0.73;;;22.80;48.90;;;;;;4920979;28;45161;-59
2022/07/11 06:55:02;;;;;;;0.63;0.50;;;22.80;48.90;;;;;;4923591;28;45210;-58
2022/07/11 06:57:28;;;;;;;0.82;0.55;;;22.80;48.80;;;;;;4917797;28;46987;-55
2022/07/11 06:59:54;;;;;;;0.47;0.45;;;22.80;48.80;;;;;;4921652;28;45488;-57
2022/07/11 07:02:23;;;;;;;0.50;0.50;;;22.80;48.80;;;;;;4919080;28;45248;-58
2022/07/11 07:04:49;;;;;;;0.40;0.40;;;22.80;48.80;;;;;;4922260;28;45625;-58
2022/07/11 07:07:15;;;;;;;1.17;0.30;;;22.80;48.80;;;;;;4915444;28;45936;-60
2022/07/11 07:09:42;;;;;;;0.40;0.40;;;22.80;48.70;;;;;;4922336;28;45410;-55
2022/07/11 07:12:08;;;;;;;0.52;0.40;;;22.90;48.90;;;;;;4915897;28;45240;-57
2022/07/11 07:14:34;;;;;;;0.50;0.30;;;22.90;48.80;;;;;;4923590;28;45373;-59
2022/07/11 07:17:01;;;;;;;0.85;0.38;;;22.90;48.60;;;;;;4923714;28;46230;-61
2022/07/11 07:19:27;;;;;;;0.65;0.40;;;22.90;48.60;;;;;;4922890;28;45129;-53
2022/07/11 07:21:53;;;;;;;0.38;0.30;;;22.90;48.50;;;;;;4920450;28;45391;-57
2022/07/11 07:24:20;;;;;;;0.40;0.30;;;22.90;48.60;;;;;;4922248;28;46515;-57
2022/07/11 07:26:46;;;;;;;0.40;0.30;;;22.90;48.50;;;;;;4923530;28;46015;-55
2022/07/11 07:29:12;;;;;;;0.60;0.38;;;23.00;48.60;;;;;;4919503;28;45185;-57
2022/07/11 07:31:38;;;;;;;0.60;0.40;;;23.00;48.50;;;;;;4919056;28;45572;-55
2022/07/11 07:34:05;;;;;;;0.40;0.40;;;23.00;48.50;;;;;;4916461;28;45153;-60
2022/07/11 07:36:31;;;;;;;0.73;0.40;;;23.00;48.40;;;;;;4922970;28;46413;-55
2022/07/11 07:38:57;;;;;;;0.30;0.30;;;23.00;48.50;;;;;;4923666;28;45359;-60
2022/07/11 07:41:24;;;;;;;0.73;0.40;;;23.00;48.40;;;;;;4922686;28;45119;-59
2022/07/11 07:43:51;;;;;;;0.73;0.30;;;23.00;48.40;;;;;;4905526;28;45213;-59
2022/07/11 07:46:17;;;;;;;0.95;0.40;;;23.00;48.50;;;;;;4920210;28;46090;-57
2022/07/11 07:48:44;;;;;;;0.40;0.40;;;23.00;48.40;;;;;;4922859;28;45553;-58
2022/07/11 07:51:10;;;;;;;1.55;0.40;;;23.00;48.30;;;;;;4921547;28;45235;-59
2022/07/11 07:53:37;;;;;;;0.32;0.32;;;23.00;48.40;;;;;;4904879;28;45596;-57
2022/07/11 07:56:05;;;;;;;0.60;0.20;;;23.00;48.30;;;;;;4917933;28;46447;-58
2022/07/11 07:58:31;;;;;;;0.65;0.50;;;23.10;48.20;;;;;;4920251;28;45143;-57
2022/07/11 08:03:42;;;;;;;0.50;0.22;;;23.10;48.30;;;;;;4919742;28;45887;-56
2022/07/11 08:06:08;;;;;;;0.40;0.40;;;23.10;48.20;;;;;;4920549;28;46167;-61
2022/07/11 08:08:35;;;;;;;0.32;0.30;;;23.10;48.30;;;;;;4915690;28;45143;-52
2022/07/11 08:11:02;;;;;;;1.15;0.38;;;23.10;48.30;;;;;;4922444;28;45102;-55
2022/07/11 08:13:28;;;;;;;1.17;0.50;;;23.20;48.30;;;;;;4923242;28;45165;-60
2022/07/11 08:15:55;;;;;;;0.20;0.20;;;23.20;48.30;;;;;;4920629;28;45264;-56
2022/07/11 08:18:21;;;;;;;0.47;0.30;;;23.20;48.30;;;;;;4918245;28;44839;-57
2022/07/11 08:20:47;;;;;;;2.33;0.25;;;23.20;48.20;;;;;;4902027;28;45298;-59
2022/07/11 08:23:14;;;;;;;0.43;0.40;;;23.20;48.30;;;;;;4924664;28;45203;-58
2022/07/11 08:25:40;;;;;;;0.82;0.40;;;23.20;48.20;;;;;;4919767;28;46201;-58
2022/07/11 08:28:05;;;;;;;2.63;0.40;;;23.20;48.30;;;;;;4920861;28;45224;-57
2022/07/11 08:30:31;;;;;;;0.52;0.47;;;23.20;48.20;;;;;;4921680;28;45517;-57
2022/07/11 08:32:57;;;;;;;1.05;0.30;;;23.20;48.30;;;;;;4918684;28;44894;-57
2022/07/11 08:35:22;;;;;;;0.47;0.22;;;23.20;48.40;;;;;;4904125;28;47113;-60
2022/07/11 08:37:48;;;;;;;1.58;0.40;;;23.20;48.30;;;;;;4919457;28;44705;-59
2022/07/11 08:40:13;;;;;;;0.30;0.30;;;23.20;48.50;;;;;;4914983;28;45405;-61
2022/07/11 08:42:43;;;;;;;0.40;0.40;;;23.20;48.80;;;;;;4898964;28;45187;-60
2022/07/11 08:45:15;;;;;;;0.35;0.35;;;23.20;49.00;;;;;;4923784;28;45971;-63
2022/07/11 08:47:41;;;;;;;2.28;0.50;;;23.20;49.30;;;;;;4923441;28;45595;-59
2022/07/11 08:50:07;;;;;;;0.80;0.70;;;23.20;49.40;;;;;;4923149;28;45405;-56
2022/07/11 08:52:33;;;;;;;0.75;0.50;;;23.20;49.40;;;;;;4919832;28;45137;-59
2022/07/11 08:54:59;;;;;;;2.70;0.50;;;23.30;49.60;;;;;;4920100;28;46130;-58
2022/07/11 08:57:24;;;;;;;0.88;0.47;;;23.20;49.40;;;;;;4920441;28;45144;-60
2022/07/11 08:59:55;;;;;;;0.40;0.30;;;23.30;49.70;;;;;;4920249;28;45207;-64
2022/07/11 09:02:20;;;;;;;0.40;0.30;;;23.30;49.90;;;;;;4916181;28;44996;-58
2022/07/11 09:04:46;;;;;;;1.60;0.50;;;23.30;50.00;;;;;;4923018;28;46294;-58
2022/07/11 09:07:12;;;;;;;1.33;0.40;;;23.40;50.00;;;;;;4925129;28;45432;-57
2022/07/11 09:09:38;;;;;;;0.55;0.30;;;23.40;50.10;;;;;;4922164;28;45177;-56
2022/07/11 09:12:12;;;;;;;1.27;0.30;;;23.40;50.20;;;;;;4921520;28;44976;-53
2022/07/11 09:14:38;;;;;;;1.38;0.40;;;23.40;50.40;;;;;;4912747;28;45717;-54
2022/07/11 09:17:04;;;;;;;0.50;0.47;;;23.40;50.40;;;;;;4923623;28;45460;-59
2022/07/11 09:19:31;;;;;;;0.38;0.38;;;23.40;50.30;;;;;;4919370;28;44691;-55
2022/07/11 09:27:55;;;;;;;0.57;0.30;;;23.50;50.60;;;;;;4921986;28;45118;-55
2022/07/11 09:30:24;;;;;;;0.93;0.53;;;23.50;50.80;;;;;;4921120;28;45181;-56
2022/07/11 09:33:00;;;;;;;3.47;0.45;;;23.50;50.80;;;;;;4917806;28;45384;-58
2022/07/11 09:35:37;;;;;;;3.65;0.47;;;23.50;51.10;;;;;;4919587;28;46243;-57
2022/07/11 09:38:07;;;;;;;1.70;0.50;;;23.50;50.70;;;;;;4920192;28;45455;-59
2022/07/11 09:40:32;;;;;;;0.50;0.28;;;23.50;50.60;;;;;;4916252;28;44600;-55
2022/07/11 09:42:59;;;;;;;1.35;0.30;;;23.50;50.50;;;;;;4914601;28;45674;-55
2022/07/11 09:45:26;;;;;;;3.38;0.57;;;23.60;50.40;;;;;;4913874;28;46143;-53
2022/07/11 09:47:55;;;;;;;2.35;0.47;;;23.60;51.30;;;;;;4921816;28;44877;-56
2022/07/11 09:50:28;;;;;;;2.53;0.47;;;23.60;50.90;;;;;;4918540;28;45541;-60
2022/07/11 09:53:14;;;;;;;0.28;0.28;;;23.60;50.90;;;;;;4918294;28;45164;-61
2022/07/11 09:55:46;;;;;;;2.42;0.50;;;23.60;51.60;;;;;;4915188;28;46307;-56
2022/07/11 09:58:16;;;;;;;0.25;0.20;;;23.60;51.40;;;;;;4915480;28;45167;-56
2022/07/11 10:00:43;;;;;;;0.82;0.40;;;23.60;51.10;;;;;;4919253;28;44810;-60
2022/07/11 10:03:09;;;;;;;1.23;0.30;;;23.60;51.20;;;;;;4912468;28;45100;-65
2022/07/11 10:05:35;;;;;;;0.30;0.20;;;23.60;51.20;;;;;;4919210;28;46128;-55
2022/07/11 10:08:01;;;;;;;1.30;0.40;;;23.60;51.30;;;;;;4919328;28;45121;-58
2022/07/11 10:10:27;;;;;;;1.40;0.30;;;23.60;51.20;;;;;;4923773;28;45200;-56
2022/07/11 10:12:53;;;;;;;2.38;0.20;;;23.60;51.20;;;;;;4922629;28;45188;-57
2022/07/11 10:15:32;;;;;;;0.52;0.22;;;23.60;51.10;;;;;;4921403;28;45911;-57
2022/07/11 10:17:58;;;;;;;2.03;0.35;;;23.60;51.40;;;;;;4908898;28;45188;-53
2022/07/11 10:20:34;;;;;;;0.73;0.30;;;23.60;51.00;;;;;;4923020;28;44813;-59
2022/07/11 10:23:12;;;;;;;0.73;0.30;;;23.60;51.00;;;;;;4908445;28;44600;-60
2022/07/11 10:26:00;;;;;;;2.30;0.30;;;23.60;50.80;;;;;;4918201;28;45400;-61
2022/07/11 10:28:33;;;;;;;1.00;0.30;;;23.60;50.70;;;;;;4928380;28;44615;-55
2022/07/11 10:30:59;;;;;;;2.50;0.30;;;23.60;50.60;;;;;;4903896;28;45243;-52
2022/07/11 10:33:25;;;;;;;0.35;0.35;;;23.60;50.70;;;;;;4921811;28;44886;-58
2022/07/11 10:35:51;;;;;;;2.88;0.38;;;23.60;50.60;;;;;;4919259;28;45285;-57
2022/07/11 10:38:17;;;;;;;0.25;0.25;;;23.60;50.50;;;;;;4920692;28;44625;-56
2022/07/11 10:40:58;;;;;;;0.20;0.20;;;23.60;50.40;;;;;;4922568;28;44760;-55
2022/07/11 10:43:41;;;;;;;0.30;0.30;;;23.60;50.60;;;;;;4922517;28;44842;-58
2022/07/11 10:46:11;;;;;;;0.82;0.30;;;23.60;50.50;;;;;;4920235;28;45998;-57
2022/07/11 10:48:52;;;;;;;1.30;0.45;;;23.60;50.30;;;;;;4921278;28;45716;-54
2022/07/11 10:51:37;;;;;;;0.63;0.40;;;23.70;50.30;;;;;;4920076;28;45244;-56
2022/07/11 10:54:32;;;;;;;0.38;0.30;;;23.70;50.10;;;;;;4920159;28;46300;-64
2022/07/11 10:57:19;;;;;;;0.40;0.20;;;23.80;49.90;;;;;;4919052;28;45376;-55
2022/07/11 11:00:05;;;;;;;1.85;0.35;;;23.80;50.20;;;;;;4929303;28;44797;-63
2022/07/11 11:02:31;;;;;;;0.95;0.40;;;23.80;49.80;;;;;;4921053;28;45554;-62
2022/07/11 11:04:58;;;;;;;2.75;0.30;;;23.80;49.40;;;;;;4920137;28;46137;-64
2022/07/11 11:07:29;;;;;;;0.52;0.30;;;23.80;49.30;;;;;;4901836;28;46018;-63
2022/07/11 11:09:55;;;;;;;0.30;0.30;;;23.90;49.40;;;;;;4928257;28;44694;-63
2022/07/11 11:12:40;;;;;;;1.38;0.40;;;23.90;49.20;;;;;;4921940;28;46020;-62
2022/07/11 11:15:34;;;;;;;1.90;0.32;;;23.90;49.20;;;;;;4894032;28;45040;-64
2022/07/11 11:18:22;;;;;;;0.30;0.20;;;23.90;49.40;;;;;;4917821;28;45177;-63
2022/07/11 11:21:00;;;;;;;1.40;0.30;;;24.00;49.30;;;;;;4920994;28;45561;-65
2022/07/11 11:24:01;;;;;;;0.88;0.30;;;24.00;49.30;;;;;;4921740;28;44931;-65
2022/07/11 11:26:43;;;;;;;2.20;0.20;;;24.00;49.10;;;;;;4919421;28;45787;-65
2022/07/11 11:29:09;;;;;;;0.30;0.30;;;24.00;49.10;;;;;;4927546;28;46257;-60
2022/07/11 11:31:35;;;;;;;3.30;0.35;;;24.10;48.90;;;;;;4921092;28;45181;-61
2022/07/11 11:34:01;;;;;;;1.20;0.40;;;24.10;48.90;;;;;;4902589;28;45461;-61
2022/07/11 11:36:27;;;;;;;0.22;0.22;;;24.10;48.80;;;;;;4918713;28;45450;-63
2022/07/11 11:38:53;;;;;;;3.03;0.40;;;24.10;48.70;;;;;;4920406;28;45333;-62
2022/07/11 11:41:29;;;;;;;0.57;0.30;;;24.10;48.70;;;;;;4920299;28;45927;-62
2022/07/11 11:44:01;;;;;;;0.32;0.20;;;24.20;48.70;;;;;;4919003;28;45273;-63
2022/07/11 11:46:28;;;;;;;0.85;0.40;;;24.20;48.70;;;;;;4913760;28;45309;-61
2022/07/11 11:48:57;;;;;;;1.95;0.45;;;24.20;48.60;;;;;;4919081;28;45976;-63
2022/07/11 11:51:23;;;;;;;0.88;0.35;;;24.20;48.60;;;;;;4899761;28;44695;-59
2022/07/11 11:53:54;;;;;;;0.68;0.28;;;24.20;48.50;;;;;;4915086;28;44763;-63
2022/07/11 11:56:23;;;;;;;0.40;0.28;;;24.20;48.50;;;;;;4923805;28;45094;-61
2022/07/11 11:58:50;;;;;;;0.45;0.28;;;24.20;48.40;;;;;;4924374;28;45525;-65
2022/07/11 12:01:20;;;;;;;0.43;0.30;;;24.20;48.30;;;;;;4902235;28;45339;-60
2022/07/11 12:03:54;;;;;;;2.08;0.32;;;24.30;48.40;;;;;;4922549;28;44806;-63
2022/07/11 12:06:23;;;;;;;0.43;0.30;;;24.30;48.30;;;;;;4920517;28;45424;-65
2022/07/11 12:08:50;;;;;;;1.35;0.30;;;24.30;48.30;;;;;;4922828;28;45995;-65
2022/07/11 12:11:15;;;;;;;0.20;0.20;;;24.30;48.20;;;;;;4924061;28;45203;-61
2022/07/11 12:13:41;;;;;;;0.73;0.50;;;24.30;48.20;;;;;;4922235;28;44760;-58
2022/07/11 12:19:01;;;;;;;0.40;0.30;;;24.40;48.10;;;;;;4918192;28;45371;-61
2022/07/11 12:21:30;;;;;;;0.28;0.20;;;24.40;48.00;;;;;;4902744;28;45495;-62
2022/07/11 12:24:02;;;;;;;0.17;0.17;;;24.40;48.00;;;;;;4920568;28;45176;-62
2022/07/11 12:26:29;;;;;;;0.37;0.37;;;24.40;47.90;;;;;;4902249;28;44855;-57
2022/07/11 12:29:02;;;;;;;0.43;0.30;;;24.40;47.90;;;;;;4923595;28;45330;-62
2022/07/11 12:31:42;;;;;;;0.20;0.20;;;24.50;47.90;;;;;;4920375;28;45390;-62
2022/07/11 12:34:08;;;;;;;0.28;0.28;;;24.50;48.00;;;;;;4922589;28;45394;-61
2022/07/11 12:36:34;;;;;;;0.20;0.20;;;24.50;47.80;;;;;;4901552;28;45247;-71
2022/07/11 12:38:59;;;;;;;0.60;0.32;;;24.50;47.80;;;;;;4903180;28;45411;-64
2022/07/11 12:41:25;;;;;;;0.52;0.30;;;24.50;47.70;;;;;;4920309;28;45121;-67
2022/07/11 12:46:36;;;;;;;1.42;0.22;;;24.60;47.60;;;;;;4917227;28;46183;-65
2022/07/11 12:49:03;;;;;;;0.43;0.32;;;24.60;47.60;;;;;;4905209;28;46029;-66
2022/07/11 12:51:40;;;;;;;0.60;0.25;;;24.60;47.60;;;;;;4919091;28;45102;-65
2022/07/11 12:54:06;;;;;;;0.63;0.20;;;24.70;47.70;;;;;;4916864;28;45443;-60
2022/07/11 12:56:32;;;;;;;0.73;0.20;;;24.70;47.60;;;;;;4918202;28;45241;-59
2022/07/11 12:59:03;;;;;;;1.50;0.60;;;24.70;47.50;;;;;;4923446;28;46236;-69
2022/07/11 13:01:30;;;;;;;0.82;0.20;;;24.70;47.50;;;;;;4901759;28;45114;-61
2022/07/11 13:03:57;;;;;;;0.30;0.20;;;24.70;47.50;;;;;;4902463;28;44764;-64
2022/07/11 13:09:08;;;;;;;0.30;0.30;;;24.80;47.40;;;;;;4920518;28;45238;-61
2022/07/11 13:11:33;;;;;;;0.77;0.20;;;24.80;47.40;;;;;;4887102;28;45217;-62
2022/07/11 13:13:59;;;;;;;0.55;0.30;;;24.80;47.40;;;;;;4898500;28;45574;-62
2022/07/11 13:16:25;;;;;;;1.85;0.95;;;24.80;47.40;;;;;;4915775;28;45230;-61
2022/07/11 13:18:50;;;;;;;0.20;0.20;;;24.80;47.40;;;;;;4925998;28;45979;-63
2022/07/11 13:21:16;;;;;;;0.40;0.40;;;24.80;47.40;;;;;;4918617;28;45680;-62
2022/07/11 13:23:42;;;;;;;0.88;0.30;;;24.80;47.30;;;;;;4918536;28;46458;-63
2022/07/11 13:26:08;;;;;;;1.40;0.20;;;24.80;47.20;;;;;;4919957;28;44741;-63
2022/07/11 13:28:34;;;;;;;0.82;0.30;;;24.80;47.30;;;;;;4923245;28;45166;-71
2022/07/11 13:31:00;;;;;;;1.77;0.30;;;24.90;47.20;;;;;;4901610;28;45793;-66
2022/07/11 13:33:25;;;;;;;1.52;0.40;;;24.90;47.20;;;;;;4911210;28;45806;-66
2022/07/11 13:35:52;;;;;;;1.30;0.30;;;24.90;47.20;;;;;;4920545;28;44695;-62
2022/07/11 13:38:18;;;;;;;0.20;0.20;;;24.90;47.10;;;;;;4921081;28;45605;-66
2022/07/11 13:40:44;;;;;;;0.20;0.20;;;24.90;47.10;;;;;;4901785;28;45548;-70
2022/07/11 13:43:11;;;;;;;0.38;0.38;;;24.90;47.10;;;;;;4906945;28;45642;-65
2022/07/11 13:45:38;;;;;;;0.65;0.30;;;24.90;47.00;;;;;;4920729;28;44851;-63
2022/07/11 13:48:04;;;;;;;0.80;0.50;;;25.00;47.00;;;;;;4905569;28;46300;-63
2022/07/11 13:50:30;;;;;;;1.30;0.20;;;25.00;47.00;;;;;;4921639;28;45447;-64
2022/07/11 13:52:55;;;;;;;0.93;0.30;;;25.00;47.00;;;;;;4922729;28;45483;-65
2022/07/11 13:55:31;;;;;;;0.40;0.40;;;25.00;46.90;;;;;;4927929;28;45365;-63
2022/07/11 13:57:57;;;;;;;0.40;0.35;;;25.00;46.90;;;;;;4924392;28;46351;-63
2022/07/11 14:00:23;;;;;;;0.38;0.38;;;25.00;46.90;;;;;;4904017;28;45417;-63
2022/07/11 14:02:49;;;;;;;0.70;0.22;;;25.00;46.90;;;;;;4898059;28;45613;-64
2022/07/11 14:05:15;;;;;;;0.28;0.28;;;25.00;46.80;;;;;;4919965;28;45557;-60
2022/07/11 14:07:41;;;;;;;0.30;0.30;;;25.10;46.90;;;;;;4920316;28;46143;-62
2022/07/11 14:10:08;;;;;;;1.23;0.35;;;25.10;46.90;;;;;;4907366;28;45559;-63
2022/07/11 14:12:34;;;;;;;0.57;0.30;;;25.10;46.90;;;;;;4886502;28;45401;-63
2022/07/11 14:14:59;;;;;;;0.73;0.30;;;25.10;46.80;;;;;;4921137;28;45143;-64
2022/07/11 14:17:25;;;;;;;0.60;0.25;;;25.10;46.80;;;;;;4913556;28;45220;-65
2022/07/11 14:19:51;;;;;;;1.65;0.40;;;25.10;46.80;;;;;;4922110;28;45585;-67
2022/07/11 14:22:17;;;;;;;0.65;0.38;;;25.10;46.80;;;;;;4921880;28;45557;-64
2022/07/11 14:24:43;;;;;;;1.45;0.40;;;25.10;46.70;;;;;;4904627;28;45291;-62
2022/07/11 14:27:09;;;;;;;0.55;0.40;;;25.10;46.70;;;;;;4921975;28;45336;-62
2022/07/11 14:29:35;;;;;;;1.05;0.30;;;25.20;46.80;;;;;;4923628;28;44760;-64
2022/07/11 14:32:01;;;;;;;0.50;0.50;;;25.10;46.70;;;;;;4920872;28;45606;-62
2022/07/11 14:34:26;;;;;;;0.20;0.20;;;25.20;46.70;;;;;;4920900;28;45507;-63
2022/07/11 14:36:52;;;;;;;0.52;0.30;;;25.20;46.70;;;;;;4906900;28;45385;-68
2022/07/11 14:39:18;;;;;;;0.68;0.50;;;25.20;46.60;;;;;;4922858;28;45453;-60
2022/07/11 14:41:47;;;;;;;0.20;0.20;;;25.20;46.60;;;;;;4918150;28;44738;-65
2022/07/11 14:44:12;;;;;;;0.50;0.28;;;25.20;46.60;;;;;;4918539;28;45303;-63
2022/07/11 14:46:38;;;;;;;0.75;0.40;;;25.20;46.60;;;;;;4919489;28;45953;-62
2022/07/11 14:49:07;;;;;;;0.40;0.40;;;25.20;46.50;;;;;;4921695;28;45214;-66
2022/07/11 14:51:34;;;;;;;0.20;0.20;;;25.20;46.50;;;;;;4919638;28;45125;-68
2022/07/11 14:53:59;;;;;;;0.32;0.32;;;25.20;46.50;;;;;;4906903;28;45701;-66
2022/07/11 14:56:25;;;;;;;1.42;0.35;;;25.20;46.50;;;;;;4920979;28;45125;-66
2022/07/11 14:58:50;;;;;;;2.15;0.30;;;25.30;46.50;;;;;;4927057;28;45405;-63
2022/07/11 15:01:16;;;;;;;2.28;0.30;;;25.30;46.50;;;;;;4919525;28;45258;-61
2022/07/11 15:03:43;;;;;;;0.30;0.30;;;25.30;46.50;;;;;;4920672;28;45376;-68
2022/07/11 15:06:13;;;;;;;0.43;0.40;;;25.30;46.50;;;;;;4921531;28;45733;-66
2022/07/11 15:14:08;;;;;;;0.30;0.30;;;25.30;46.50;;;;;;4921138;28;44812;-66
2022/07/11 15:16:34;;;;;;;0.60;0.22;;;25.30;46.50;;;;;;4921699;28;45158;-67
2022/07/11 15:19:00;;;;;;;0.60;0.40;;;25.30;46.50;;;;;;4918083;28;45223;-61
2022/07/11 15:21:26;;;;;;;0.45;0.20;;;25.30;46.40;;;;;;4922518;28;45253;-65
2022/07/11 15:23:52;;;;;;;0.57;0.40;;;25.30;46.40;;;;;;4905253;28;44855;-63
2022/07/11 15:26:17;;;;;;;1.23;0.63;;;25.30;46.30;;;;;;4926902;28;45577;-65
2022/07/11 15:28:43;;;;;;;0.20;0.20;;;25.30;46.40;;;;;;4923296;28;44695;-64
2022/07/11 15:31:10;;;;;;;0.20;0.20;;;25.30;46.40;;;;;;4922838;28;45273;-61
2022/07/11 15:33:35;;;;;;;0.60;0.30;;;25.30;46.40;;;;;;4924127;28;45312;-68
2022/07/11 15:36:01;;;;;;;0.45;0.35;;;25.30;46.50;;;;;;4920603;28;45299;-65
2022/07/11 15:38:26;;;;;;;0.50;0.30;;;25.30;46.50;;;;;;4916953;28;46017;-64
2022/07/11 15:40:53;;;;;;;0.30;0.30;;;25.30;46.50;;;;;;4918356;28;45488;-67
2022/07/11 15:43:19;;;;;;;0.20;0.20;;;25.20;46.50;;;;;;4915485;28;44726;-72
2022/07/11 15:45:44;;;;;;;0.40;0.20;;;25.20;46.50;;;;;;4915938;28;46195;-66
2022/07/11 15:48:10;;;;;;;0.57;0.40;;;25.20;46.60;;;;;;4900197;28;45018;-71
2022/07/11 15:50:36;;;;;;;0.30;0.30;;;25.20;46.60;;;;;;4918504;28;45233;-69
2022/07/11 15:53:01;;;;;;;0.40;0.30;;;25.20;46.60;;;;;;4917418;28;45340;-65
2022/07/11 15:55:27;;;;;;;1.38;0.40;;;25.20;46.60;;;;;;4918933;28;45212;-65
2022/07/11 15:57:53;;;;;;;0.43;0.30;;;25.20;46.60;;;;;;4915843;28;45147;-63
2022/07/11 16:00:20;;;;;;;0.40;0.20;;;25.10;46.50;;;;;;4883687;28;45227;-66
2022/07/11 16:02:47;;;;;;;0.52;0.28;;;25.20;46.60;;;;;;4900014;28;44938;-65
2022/07/11 16:05:12;;;;;;;0.30;0.25;;;25.20;46.50;;;;;;4911215;28;45621;-67
2022/07/11 16:07:38;;;;;;;0.60;0.30;;;25.20;46.50;;;;;;4912113;28;45498;-66
2022/07/11 16:10:04;;;;;;;0.32;0.30;;;25.20;46.50;;;;;;4883466;28;45687;-66
2022/07/11 16:12:31;;;;;;;0.57;0.20;;;25.20;46.50;;;;;;4898099;28;45125;-65
2022/07/11 16:14:57;;;;;;;1.75;0.43;;;25.10;46.40;;;;;;4898053;28;46165;-65
2022/07/11 16:17:23;;;;;;;0.30;0.30;;;25.10;46.40;;;;;;4912904;28;45216;-66